sensor_id;sensor_type;location;lat;lon;timestamp;P1;durP1;ratioP1;P2;durP2;ratioP2
56343;SDS011;42245;42.058;24.700;2023-04-19T00:02:19;3.72;;;1.85;;
56343;SDS011;42245;42.058;24.700;2023-04-19T00:04:44;4.88;;;1.80;;
56343;SDS011;42245;42.058;24.700;2023-04-19T00:07:11;10.18;;;1.90;;
56343;SDS011;42245;42.058;24.700;2023-04-19T00:09:37;3.53;;;1.85;;
56343;SDS011;42245;42.058;24.700;2023-04-19T00:12:03;2.38;;;1.80;;
56343;SDS011;42245;42.058;24.700;2023-04-19T00:14:29;1.50;;;1.30;;
56343;SDS011;42245;42.058;24.700;2023-04-19T00:16:54;1.95;;;1.20;;
56343;SDS011;42245;42.058;24.700;2023-04-19T00:19:19;2.10;;;1.20;;
56343;SDS011;42245;42.058;24.700;2023-04-19T00:21:46;1.77;;;1.40;;
56343;SDS011;42245;42.058;24.700;2023-04-19T00:24:12;3.88;;;1.38;;
56343;SDS011;42245;42.058;24.700;2023-04-19T00:26:37;1.45;;;1.35;;
56343;SDS011;42245;42.058;24.700;2023-04-19T00:29:03;1.42;;;1.33;;
56343;SDS011;42245;42.058;24.700;2023-04-19T00:31:28;3.17;;;1.30;;
56343;SDS011;42245;42.058;24.700;2023-04-19T00:33:54;2.03;;;1.30;;
56343;SDS011;42245;42.058;24.700;2023-04-19T00:36:20;1.35;;;1.23;;
56343;SDS011;42245;42.058;24.700;2023-04-19T00:38:45;3.38;;;1.50;;
56343;SDS011;42245;42.058;24.700;2023-04-19T00:41:11;4.53;;;1.55;;
56343;SDS011;42245;42.058;24.700;2023-04-19T00:43:36;1.60;;;1.30;;
56343;SDS011;42245;42.058;24.700;2023-04-19T00:46:02;4.90;;;1.40;;
56343;SDS011;42245;42.058;24.700;2023-04-19T00:48:27;3.28;;;1.50;;
56343;SDS011;42245;42.058;24.700;2023-04-19T00:50:54;1.45;;;1.35;;
56343;SDS011;42245;42.058;24.700;2023-04-19T00:53:20;4.95;;;1.35;;
56343;SDS011;42245;42.058;24.700;2023-04-19T00:55:45;3.38;;;1.42;;
56343;SDS011;42245;42.058;24.700;2023-04-19T00:58:11;1.70;;;1.35;;
56343;SDS011;42245;42.058;24.700;2023-04-19T01:00:37;4.18;;;1.52;;
56343;SDS011;42245;42.058;24.700;2023-04-19T01:03:02;3.45;;;1.40;;
56343;SDS011;42245;42.058;24.700;2023-04-19T01:05:28;3.97;;;1.50;;
56343;SDS011;42245;42.058;24.700;2023-04-19T01:07:54;1.17;;;1.08;;
56343;SDS011;42245;42.058;24.700;2023-04-19T01:10:20;3.38;;;1.20;;
56343;SDS011;42245;42.058;24.700;2023-04-19T01:12:45;1.40;;;1.30;;
56343;SDS011;42245;42.058;24.700;2023-04-19T01:15:11;3.22;;;1.27;;
56343;SDS011;42245;42.058;24.700;2023-04-19T01:17:36;1.58;;;1.30;;
56343;SDS011;42245;42.058;24.700;2023-04-19T01:20:02;2.22;;;1.10;;
56343;SDS011;42245;42.058;24.700;2023-04-19T01:22:30;1.38;;;1.17;;
56343;SDS011;42245;42.058;24.700;2023-04-19T01:24:56;1.52;;;1.10;;
56343;SDS011;42245;42.058;24.700;2023-04-19T01:27:22;3.42;;;1.40;;
56343;SDS011;42245;42.058;24.700;2023-04-19T01:29:48;1.73;;;1.33;;
56343;SDS011;42245;42.058;24.700;2023-04-19T01:32:13;1.38;;;1.10;;
56343;SDS011;42245;42.058;24.700;2023-04-19T01:34:39;1.20;;;1.10;;
56343;SDS011;42245;42.058;24.700;2023-04-19T01:37:06;2.20;;;1.17;;
56343;SDS011;42245;42.058;24.700;2023-04-19T01:39:31;1.20;;;1.10;;
56343;SDS011;42245;42.058;24.700;2023-04-19T01:41:57;1.38;;;1.27;;
56343;SDS011;42245;42.058;24.700;2023-04-19T01:44:22;2.28;;;1.20;;
56343;SDS011;42245;42.058;24.700;2023-04-19T01:46:47;2.75;;;1.13;;
56343;SDS011;42245;42.058;24.700;2023-04-19T01:49:13;1.30;;;1.02;;
56343;SDS011;42245;42.058;24.700;2023-04-19T01:51:38;1.67;;;1.40;;
56343;SDS011;42245;42.058;24.700;2023-04-19T01:54:04;1.40;;;1.20;;
56343;SDS011;42245;42.058;24.700;2023-04-19T01:56:29;2.08;;;1.00;;
56343;SDS011;42245;42.058;24.700;2023-04-19T01:58:55;2.60;;;1.10;;
56343;SDS011;42245;42.058;24.700;2023-04-19T02:01:21;2.72;;;1.13;;
56343;SDS011;42245;42.058;24.700;2023-04-19T02:03:46;1.00;;;0.90;;
56343;SDS011;42245;42.058;24.700;2023-04-19T02:06:12;2.45;;;1.10;;
56343;SDS011;42245;42.058;24.700;2023-04-19T02:08:41;1.08;;;0.90;;
56343;SDS011;42245;42.058;24.700;2023-04-19T02:11:07;2.28;;;1.10;;
56343;SDS011;42245;42.058;24.700;2023-04-19T02:13:33;1.65;;;1.25;;
56343;SDS011;42245;42.058;24.700;2023-04-19T02:15:58;4.70;;;1.20;;
56343;SDS011;42245;42.058;24.700;2023-04-19T02:18:26;1.77;;;0.90;;
56343;SDS011;42245;42.058;24.700;2023-04-19T02:20:54;2.60;;;1.10;;
56343;SDS011;42245;42.058;24.700;2023-04-19T02:23:20;2.65;;;0.73;;
56343;SDS011;42245;42.058;24.700;2023-04-19T02:25:45;1.52;;;1.02;;
56343;SDS011;42245;42.058;24.700;2023-04-19T02:28:10;2.55;;;1.10;;
56343;SDS011;42245;42.058;24.700;2023-04-19T02:30:36;2.60;;;1.02;;
56343;SDS011;42245;42.058;24.700;2023-04-19T02:33:01;1.23;;;1.13;;
56343;SDS011;42245;42.058;24.700;2023-04-19T02:35:27;0.90;;;0.90;;
56343;SDS011;42245;42.058;24.700;2023-04-19T02:37:52;1.20;;;1.10;;
56343;SDS011;42245;42.058;24.700;2023-04-19T02:40:18;1.00;;;0.90;;
56343;SDS011;42245;42.058;24.700;2023-04-19T02:42:43;1.15;;;1.00;;
56343;SDS011;42245;42.058;24.700;2023-04-19T02:45:09;6.22;;;1.00;;
56343;SDS011;42245;42.058;24.700;2023-04-19T02:47:34;2.67;;;0.98;;
56343;SDS011;42245;42.058;24.700;2023-04-19T02:50:00;0.93;;;0.90;;
56343;SDS011;42245;42.058;24.700;2023-04-19T02:52:25;1.63;;;1.00;;
56343;SDS011;42245;42.058;24.700;2023-04-19T02:54:51;1.73;;;1.05;;
56343;SDS011;42245;42.058;24.700;2023-04-19T02:57:17;3.65;;;1.13;;
56343;SDS011;42245;42.058;24.700;2023-04-19T02:59:42;1.90;;;1.00;;
56343;SDS011;42245;42.058;24.700;2023-04-19T03:02:08;1.60;;;1.30;;
56343;SDS011;42245;42.058;24.700;2023-04-19T03:04:33;4.63;;;1.17;;
56343;SDS011;42245;42.058;24.700;2023-04-19T03:07:00;1.20;;;1.10;;
56343;SDS011;42245;42.058;24.700;2023-04-19T03:09:26;2.00;;;1.13;;
56343;SDS011;42245;42.058;24.700;2023-04-19T03:11:51;1.00;;;1.00;;
56343;SDS011;42245;42.058;24.700;2023-04-19T03:14:17;3.85;;;1.40;;
56343;SDS011;42245;42.058;24.700;2023-04-19T03:16:42;3.40;;;1.10;;
56343;SDS011;42245;42.058;24.700;2023-04-19T03:19:08;1.20;;;1.10;;
56343;SDS011;42245;42.058;24.700;2023-04-19T03:21:33;1.65;;;0.98;;
56343;SDS011;42245;42.058;24.700;2023-04-19T03:23:59;1.92;;;1.20;;
56343;SDS011;42245;42.058;24.700;2023-04-19T03:26:25;1.10;;;1.00;;
56343;SDS011;42245;42.058;24.700;2023-04-19T03:28:51;1.10;;;0.98;;
56343;SDS011;42245;42.058;24.700;2023-04-19T03:31:16;1.30;;;1.15;;
56343;SDS011;42245;42.058;24.700;2023-04-19T03:33:42;1.30;;;1.15;;
56343;SDS011;42245;42.058;24.700;2023-04-19T03:36:07;1.60;;;1.10;;
56343;SDS011;42245;42.058;24.700;2023-04-19T03:38:33;1.60;;;1.10;;
56343;SDS011;42245;42.058;24.700;2023-04-19T03:40:58;1.92;;;1.10;;
56343;SDS011;42245;42.058;24.700;2023-04-19T03:43:24;2.75;;;1.40;;
56343;SDS011;42245;42.058;24.700;2023-04-19T03:45:49;1.30;;;1.20;;
56343;SDS011;42245;42.058;24.700;2023-04-19T03:48:15;1.35;;;1.20;;
56343;SDS011;42245;42.058;24.700;2023-04-19T03:50:40;1.40;;;1.25;;
56343;SDS011;42245;42.058;24.700;2023-04-19T03:53:06;1.63;;;1.15;;
56343;SDS011;42245;42.058;24.700;2023-04-19T03:55:31;1.58;;;1.20;;
56343;SDS011;42245;42.058;24.700;2023-04-19T03:57:58;1.67;;;1.05;;
56343;SDS011;42245;42.058;24.700;2023-04-19T04:00:23;1.35;;;1.23;;
56343;SDS011;42245;42.058;24.700;2023-04-19T04:02:50;2.35;;;1.52;;
56343;SDS011;42245;42.058;24.700;2023-04-19T04:05:15;1.40;;;1.30;;
56343;SDS011;42245;42.058;24.700;2023-04-19T04:07:41;1.65;;;1.50;;
56343;SDS011;42245;42.058;24.700;2023-04-19T04:10:06;1.90;;;1.48;;
56343;SDS011;42245;42.058;24.700;2023-04-19T04:12:32;1.45;;;1.35;;
56343;SDS011;42245;42.058;24.700;2023-04-19T04:14:58;4.00;;;1.55;;
56343;SDS011;42245;42.058;24.700;2023-04-19T04:17:23;2.00;;;1.75;;
56343;SDS011;42245;42.058;24.700;2023-04-19T04:19:49;2.10;;;1.63;;
56343;SDS011;42245;42.058;24.700;2023-04-19T04:22:15;1.67;;;1.48;;
56343;SDS011;42245;42.058;24.700;2023-04-19T04:24:41;1.80;;;1.55;;
56343;SDS011;42245;42.058;24.700;2023-04-19T04:27:07;2.65;;;1.55;;
56343;SDS011;42245;42.058;24.700;2023-04-19T04:29:38;1.83;;;1.73;;
56343;SDS011;42245;42.058;24.700;2023-04-19T04:32:05;5.20;;;1.70;;
56343;SDS011;42245;42.058;24.700;2023-04-19T04:34:42;2.30;;;1.83;;
56343;SDS011;42245;42.058;24.700;2023-04-19T04:37:08;2.92;;;1.60;;
56343;SDS011;42245;42.058;24.700;2023-04-19T04:39:34;2.40;;;1.80;;
56343;SDS011;42245;42.058;24.700;2023-04-19T04:42:03;1.50;;;1.40;;
56343;SDS011;42245;42.058;24.700;2023-04-19T04:44:32;3.03;;;1.80;;
56343;SDS011;42245;42.058;24.700;2023-04-19T04:46:58;3.42;;;1.80;;
56343;SDS011;42245;42.058;24.700;2023-04-19T04:49:24;1.80;;;1.40;;
56343;SDS011;42245;42.058;24.700;2023-04-19T04:51:49;5.88;;;1.60;;
56343;SDS011;42245;42.058;24.700;2023-04-19T04:54:15;1.88;;;1.67;;
56343;SDS011;42245;42.058;24.700;2023-04-19T04:56:41;2.22;;;1.55;;
56343;SDS011;42245;42.058;24.700;2023-04-19T04:59:06;2.53;;;2.00;;
56343;SDS011;42245;42.058;24.700;2023-04-19T05:01:32;1.67;;;1.52;;
56343;SDS011;42245;42.058;24.700;2023-04-19T05:03:57;2.20;;;1.83;;
56343;SDS011;42245;42.058;24.700;2023-04-19T05:06:23;1.75;;;1.63;;
56343;SDS011;42245;42.058;24.700;2023-04-19T05:08:48;4.20;;;1.80;;
56343;SDS011;42245;42.058;24.700;2023-04-19T05:11:14;2.15;;;1.95;;
56343;SDS011;42245;42.058;24.700;2023-04-19T05:13:40;3.83;;;2.42;;
56343;SDS011;42245;42.058;24.700;2023-04-19T05:16:05;2.45;;;2.13;;
56343;SDS011;42245;42.058;24.700;2023-04-19T05:18:31;3.33;;;3.00;;
56343;SDS011;42245;42.058;24.700;2023-04-19T05:20:56;3.47;;;2.60;;
56343;SDS011;42245;42.058;24.700;2023-04-19T05:23:22;2.90;;;2.20;;
56343;SDS011;42245;42.058;24.700;2023-04-19T05:25:47;3.17;;;2.00;;
56343;SDS011;42245;42.058;24.700;2023-04-19T05:28:13;2.08;;;1.80;;
56343;SDS011;42245;42.058;24.700;2023-04-19T05:30:38;2.20;;;2.00;;
56343;SDS011;42245;42.058;24.700;2023-04-19T05:33:04;2.30;;;1.70;;
56343;SDS011;42245;42.058;24.700;2023-04-19T05:35:29;3.60;;;1.85;;
56343;SDS011;42245;42.058;24.700;2023-04-19T05:37:55;2.65;;;1.70;;
56343;SDS011;42245;42.058;24.700;2023-04-19T05:40:20;1.80;;;1.70;;
56343;SDS011;42245;42.058;24.700;2023-04-19T05:42:47;2.25;;;1.80;;
56343;SDS011;42245;42.058;24.700;2023-04-19T05:45:14;2.80;;;2.10;;
56343;SDS011;42245;42.058;24.700;2023-04-19T05:47:40;3.47;;;1.88;;
56343;SDS011;42245;42.058;24.700;2023-04-19T05:50:05;2.20;;;2.00;;
56343;SDS011;42245;42.058;24.700;2023-04-19T05:52:31;2.50;;;1.83;;
56343;SDS011;42245;42.058;24.700;2023-04-19T05:54:57;3.22;;;1.70;;
56343;SDS011;42245;42.058;24.700;2023-04-19T05:57:23;2.90;;;1.65;;
56343;SDS011;42245;42.058;24.700;2023-04-19T05:59:48;1.70;;;1.45;;
56343;SDS011;42245;42.058;24.700;2023-04-19T06:02:14;3.13;;;1.80;;
56343;SDS011;42245;42.058;24.700;2023-04-19T06:04:39;1.70;;;1.60;;
56343;SDS011;42245;42.058;24.700;2023-04-19T06:07:05;1.65;;;1.50;;
56343;SDS011;42245;42.058;24.700;2023-04-19T06:09:31;3.15;;;1.52;;
56343;SDS011;42245;42.058;24.700;2023-04-19T06:11:56;1.73;;;1.63;;
56343;SDS011;42245;42.058;24.700;2023-04-19T06:14:22;1.60;;;1.50;;
56343;SDS011;42245;42.058;24.700;2023-04-19T06:16:47;2.03;;;1.52;;
56343;SDS011;42245;42.058;24.700;2023-04-19T06:19:13;1.63;;;1.50;;
56343;SDS011;42245;42.058;24.700;2023-04-19T06:21:38;4.05;;;1.60;;
56343;SDS011;42245;42.058;24.700;2023-04-19T06:24:05;1.80;;;1.67;;
56343;SDS011;42245;42.058;24.700;2023-04-19T06:26:31;2.08;;;1.30;;
56343;SDS011;42245;42.058;24.700;2023-04-19T06:28:56;1.50;;;1.40;;
56343;SDS011;42245;42.058;24.700;2023-04-19T06:31:22;2.00;;;1.60;;
56343;SDS011;42245;42.058;24.700;2023-04-19T06:33:47;1.55;;;1.40;;
56343;SDS011;42245;42.058;24.700;2023-04-19T06:36:13;1.50;;;1.40;;
56343;SDS011;42245;42.058;24.700;2023-04-19T06:38:38;3.30;;;1.42;;
56343;SDS011;42245;42.058;24.700;2023-04-19T06:41:05;1.50;;;1.38;;
56343;SDS011;42245;42.058;24.700;2023-04-19T06:43:31;6.50;;;1.40;;
56343;SDS011;42245;42.058;24.700;2023-04-19T06:45:59;1.60;;;1.40;;
56343;SDS011;42245;42.058;24.700;2023-04-19T06:48:25;2.40;;;1.35;;
56343;SDS011;42245;42.058;24.700;2023-04-19T06:50:51;2.53;;;1.60;;
56343;SDS011;42245;42.058;24.700;2023-04-19T06:53:17;2.70;;;1.50;;
56343;SDS011;42245;42.058;24.700;2023-04-19T06:55:43;3.35;;;1.60;;
56343;SDS011;42245;42.058;24.700;2023-04-19T06:58:09;2.63;;;1.40;;
56343;SDS011;42245;42.058;24.700;2023-04-19T07:00:37;2.15;;;1.60;;
56343;SDS011;42245;42.058;24.700;2023-04-19T07:03:02;1.52;;;1.42;;
56343;SDS011;42245;42.058;24.700;2023-04-19T07:05:29;3.45;;;1.50;;
56343;SDS011;42245;42.058;24.700;2023-04-19T07:07:55;1.67;;;1.55;;
56343;SDS011;42245;42.058;24.700;2023-04-19T07:10:21;1.80;;;1.40;;
56343;SDS011;42245;42.058;24.700;2023-04-19T07:12:46;1.63;;;1.50;;
56343;SDS011;42245;42.058;24.700;2023-04-19T07:15:11;1.58;;;1.48;;
56343;SDS011;42245;42.058;24.700;2023-04-19T07:17:37;1.45;;;1.35;;
56343;SDS011;42245;42.058;24.700;2023-04-19T07:20:03;2.97;;;1.70;;
56343;SDS011;42245;42.058;24.700;2023-04-19T07:22:30;2.53;;;1.70;;
56343;SDS011;42245;42.058;24.700;2023-04-19T07:24:56;2.03;;;1.50;;
56343;SDS011;42245;42.058;24.700;2023-04-19T07:27:22;4.00;;;1.50;;
56343;SDS011;42245;42.058;24.700;2023-04-19T07:29:48;1.77;;;1.42;;
56343;SDS011;42245;42.058;24.700;2023-04-19T07:32:13;2.00;;;1.45;;
56343;SDS011;42245;42.058;24.700;2023-04-19T07:34:39;1.77;;;1.65;;
56343;SDS011;42245;42.058;24.700;2023-04-19T07:37:05;1.70;;;1.60;;
56343;SDS011;42245;42.058;24.700;2023-04-19T07:39:31;1.65;;;1.50;;
56343;SDS011;42245;42.058;24.700;2023-04-19T07:41:57;1.65;;;1.52;;
56343;SDS011;42245;42.058;24.700;2023-04-19T07:44:22;1.52;;;1.42;;
56343;SDS011;42245;42.058;24.700;2023-04-19T07:46:48;1.63;;;1.52;;
56343;SDS011;42245;42.058;24.700;2023-04-19T07:49:14;2.13;;;1.67;;
56343;SDS011;42245;42.058;24.700;2023-04-19T07:51:39;2.30;;;1.52;;
56343;SDS011;42245;42.058;24.700;2023-04-19T07:54:05;2.97;;;1.77;;
56343;SDS011;42245;42.058;24.700;2023-04-19T07:56:30;1.70;;;1.60;;
56343;SDS011;42245;42.058;24.700;2023-04-19T07:58:57;2.35;;;1.50;;
56343;SDS011;42245;42.058;24.700;2023-04-19T08:01:23;4.60;;;1.70;;
56343;SDS011;42245;42.058;24.700;2023-04-19T08:03:48;1.98;;;1.38;;
56343;SDS011;42245;42.058;24.700;2023-04-19T08:06:14;2.10;;;1.80;;
56343;SDS011;42245;42.058;24.700;2023-04-19T08:08:40;3.33;;;1.50;;
56343;SDS011;42245;42.058;24.700;2023-04-19T08:11:05;2.42;;;1.60;;
56343;SDS011;42245;42.058;24.700;2023-04-19T08:13:30;1.60;;;1.50;;
56343;SDS011;42245;42.058;24.700;2023-04-19T08:15:56;2.78;;;1.70;;
56343;SDS011;42245;42.058;24.700;2023-04-19T08:18:22;1.40;;;1.30;;
56343;SDS011;42245;42.058;24.700;2023-04-19T08:20:47;3.55;;;1.73;;
56343;SDS011;42245;42.058;24.700;2023-04-19T08:23:13;1.60;;;1.48;;
56343;SDS011;42245;42.058;24.700;2023-04-19T08:25:38;1.80;;;1.60;;
56343;SDS011;42245;42.058;24.700;2023-04-19T08:28:04;2.28;;;1.60;;
56343;SDS011;42245;42.058;24.700;2023-04-19T08:30:30;2.03;;;1.80;;
56343;SDS011;42245;42.058;24.700;2023-04-19T08:32:56;1.73;;;1.52;;
56343;SDS011;42245;42.058;24.700;2023-04-19T08:35:21;2.30;;;1.70;;
56343;SDS011;42245;42.058;24.700;2023-04-19T08:37:47;3.33;;;1.55;;
56343;SDS011;42245;42.058;24.700;2023-04-19T08:40:13;1.73;;;1.58;;
56343;SDS011;42245;42.058;24.700;2023-04-19T08:42:40;1.90;;;1.70;;
56343;SDS011;42245;42.058;24.700;2023-04-19T08:45:06;1.70;;;1.50;;
56343;SDS011;42245;42.058;24.700;2023-04-19T08:47:32;3.08;;;1.65;;
56343;SDS011;42245;42.058;24.700;2023-04-19T08:50:00;4.22;;;1.60;;
56343;SDS011;42245;42.058;24.700;2023-04-19T08:52:26;2.35;;;1.40;;
56343;SDS011;42245;42.058;24.700;2023-04-19T08:54:53;1.77;;;1.58;;
56343;SDS011;42245;42.058;24.700;2023-04-19T08:57:18;2.50;;;1.60;;
56343;SDS011;42245;42.058;24.700;2023-04-19T08:59:44;2.95;;;1.90;;
56343;SDS011;42245;42.058;24.700;2023-04-19T09:02:13;1.63;;;1.48;;
56343;SDS011;42245;42.058;24.700;2023-04-19T09:04:39;2.10;;;1.65;;
56343;SDS011;42245;42.058;24.700;2023-04-19T09:07:05;1.80;;;1.58;;
56343;SDS011;42245;42.058;24.700;2023-04-19T09:09:32;2.75;;;1.75;;
56343;SDS011;42245;42.058;24.700;2023-04-19T09:11:59;2.33;;;1.70;;
56343;SDS011;42245;42.058;24.700;2023-04-19T09:14:25;2.42;;;1.55;;
56343;SDS011;42245;42.058;24.700;2023-04-19T09:16:52;1.88;;;1.65;;
56343;SDS011;42245;42.058;24.700;2023-04-19T09:19:17;3.33;;;1.85;;
56343;SDS011;42245;42.058;24.700;2023-04-19T09:21:43;3.35;;;1.60;;
56343;SDS011;42245;42.058;24.700;2023-04-19T09:24:09;2.03;;;1.63;;
56343;SDS011;42245;42.058;24.700;2023-04-19T09:26:35;2.63;;;1.70;;
56343;SDS011;42245;42.058;24.700;2023-04-19T09:29:01;2.72;;;1.80;;
56343;SDS011;42245;42.058;24.700;2023-04-19T09:31:29;3.83;;;2.00;;
56343;SDS011;42245;42.058;24.700;2023-04-19T09:33:55;1.80;;;1.63;;
56343;SDS011;42245;42.058;24.700;2023-04-19T09:36:28;2.90;;;1.70;;
56343;SDS011;42245;42.058;24.700;2023-04-19T09:38:55;4.28;;;1.50;;
56343;SDS011;42245;42.058;24.700;2023-04-19T09:41:21;2.72;;;1.35;;
56343;SDS011;42245;42.058;24.700;2023-04-19T09:43:46;1.90;;;1.50;;
56343;SDS011;42245;42.058;24.700;2023-04-19T09:46:31;2.53;;;1.55;;
56343;SDS011;42245;42.058;24.700;2023-04-19T09:51:43;4.28;;;1.20;;
56343;SDS011;42245;42.058;24.700;2023-04-19T09:54:12;2.60;;;2.10;;
56343;SDS011;42245;42.058;24.700;2023-04-19T09:56:39;2.92;;;2.30;;
56343;SDS011;42245;42.058;24.700;2023-04-19T09:59:05;1.45;;;1.35;;
56343;SDS011;42245;42.058;24.700;2023-04-19T10:01:47;4.05;;;2.00;;
56343;SDS011;42245;42.058;24.700;2023-04-19T10:04:18;1.60;;;1.50;;
56343;SDS011;42245;42.058;24.700;2023-04-19T10:06:47;2.30;;;2.10;;
56343;SDS011;42245;42.058;24.700;2023-04-19T10:09:14;2.10;;;1.83;;
56343;SDS011;42245;42.058;24.700;2023-04-19T10:11:40;2.15;;;1.60;;
56343;SDS011;42245;42.058;24.700;2023-04-19T10:14:09;5.45;;;1.65;;
56343;SDS011;42245;42.058;24.700;2023-04-19T10:16:36;2.80;;;2.10;;
56343;SDS011;42245;42.058;24.700;2023-04-19T10:19:06;2.00;;;1.80;;
56343;SDS011;42245;42.058;24.700;2023-04-19T10:21:33;4.03;;;2.22;;
56343;SDS011;42245;42.058;24.700;2023-04-19T10:24:00;4.45;;;1.88;;
56343;SDS011;42245;42.058;24.700;2023-04-19T10:26:26;2.25;;;1.77;;
56343;SDS011;42245;42.058;24.700;2023-04-19T10:28:52;5.55;;;1.85;;
56343;SDS011;42245;42.058;24.700;2023-04-19T10:31:19;1.67;;;1.38;;
56343;SDS011;42245;42.058;24.700;2023-04-19T10:33:48;1.55;;;1.10;;
56343;SDS011;42245;42.058;24.700;2023-04-19T10:36:15;2.75;;;1.40;;
56343;SDS011;42245;42.058;24.700;2023-04-19T10:38:48;1.85;;;1.40;;
56343;SDS011;42245;42.058;24.700;2023-04-19T10:41:16;2.70;;;1.52;;
56343;SDS011;42245;42.058;24.700;2023-04-19T10:48:53;3.67;;;1.30;;
56343;SDS011;42245;42.058;24.700;2023-04-19T11:01:48;1.90;;;1.55;;
56343;SDS011;42245;42.058;24.700;2023-04-19T11:09:26;1.98;;;1.48;;
56343;SDS011;42245;42.058;24.700;2023-04-19T11:11:54;1.60;;;1.10;;
56343;SDS011;42245;42.058;24.700;2023-04-19T11:14:22;1.95;;;1.50;;
56343;SDS011;42245;42.058;24.700;2023-04-19T11:16:48;1.27;;;1.17;;
56343;SDS011;42245;42.058;24.700;2023-04-19T11:19:14;1.50;;;1.40;;
56343;SDS011;42245;42.058;24.700;2023-04-19T11:21:47;3.63;;;1.30;;
56343;SDS011;42245;42.058;24.700;2023-04-19T11:24:13;2.00;;;1.40;;
56343;SDS011;42245;42.058;24.700;2023-04-19T11:26:46;2.67;;;1.60;;
56343;SDS011;42245;42.058;24.700;2023-04-19T11:29:14;4.15;;;1.65;;
56343;SDS011;42245;42.058;24.700;2023-04-19T11:31:42;3.42;;;1.50;;
56343;SDS011;42245;42.058;24.700;2023-04-19T11:34:10;4.07;;;1.50;;
56343;SDS011;42245;42.058;24.700;2023-04-19T11:36:40;1.92;;;1.73;;
56343;SDS011;42245;42.058;24.700;2023-04-19T11:39:11;1.55;;;1.45;;
56343;SDS011;42245;42.058;24.700;2023-04-19T11:41:38;2.85;;;1.60;;
56343;SDS011;42245;42.058;24.700;2023-04-19T11:44:11;1.55;;;1.42;;
56343;SDS011;42245;42.058;24.700;2023-04-19T11:46:37;2.00;;;1.60;;
56343;SDS011;42245;42.058;24.700;2023-04-19T11:49:02;2.15;;;1.88;;
56343;SDS011;42245;42.058;24.700;2023-04-19T11:51:28;6.50;;;2.30;;
56343;SDS011;42245;42.058;24.700;2023-04-19T11:53:53;2.67;;;1.80;;
56343;SDS011;42245;42.058;24.700;2023-04-19T11:56:19;2.42;;;2.00;;
56343;SDS011;42245;42.058;24.700;2023-04-19T11:58:45;3.97;;;2.67;;
56343;SDS011;42245;42.058;24.700;2023-04-19T12:01:15;6.40;;;2.60;;
56343;SDS011;42245;42.058;24.700;2023-04-19T12:03:44;3.50;;;2.03;;
56343;SDS011;42245;42.058;24.700;2023-04-19T12:06:12;2.25;;;2.05;;
56343;SDS011;42245;42.058;24.700;2023-04-19T12:08:41;3.30;;;2.00;;
56343;SDS011;42245;42.058;24.700;2023-04-19T12:11:09;3.42;;;2.35;;
56343;SDS011;42245;42.058;24.700;2023-04-19T12:13:34;6.03;;;2.40;;
56343;SDS011;42245;42.058;24.700;2023-04-19T12:16:00;4.15;;;2.58;;
56343;SDS011;42245;42.058;24.700;2023-04-19T12:18:26;2.40;;;2.10;;
56343;SDS011;42245;42.058;24.700;2023-04-19T12:20:52;4.85;;;2.50;;
56343;SDS011;42245;42.058;24.700;2023-04-19T12:23:18;2.58;;;2.20;;
56343;SDS011;42245;42.058;24.700;2023-04-19T12:25:45;5.97;;;2.47;;
56343;SDS011;42245;42.058;24.700;2023-04-19T12:28:12;4.25;;;2.10;;
56343;SDS011;42245;42.058;24.700;2023-04-19T12:30:38;3.63;;;2.15;;
56343;SDS011;42245;42.058;24.700;2023-04-19T12:33:07;3.60;;;3.00;;
56343;SDS011;42245;42.058;24.700;2023-04-19T12:35:33;6.53;;;4.70;;
56343;SDS011;42245;42.058;24.700;2023-04-19T12:37:59;8.95;;;4.05;;
56343;SDS011;42245;42.058;24.700;2023-04-19T12:40:25;7.00;;;4.22;;
56343;SDS011;42245;42.058;24.700;2023-04-19T12:42:51;6.70;;;2.88;;
56343;SDS011;42245;42.058;24.700;2023-04-19T12:45:18;5.30;;;3.20;;
56343;SDS011;42245;42.058;24.700;2023-04-19T12:47:44;5.60;;;2.95;;
56343;SDS011;42245;42.058;24.700;2023-04-19T12:50:11;2.65;;;1.88;;
56343;SDS011;42245;42.058;24.700;2023-04-19T12:52:37;6.60;;;2.10;;
56343;SDS011;42245;42.058;24.700;2023-04-19T12:55:03;4.35;;;2.40;;
56343;SDS011;42245;42.058;24.700;2023-04-19T12:57:29;2.90;;;2.60;;
56343;SDS011;42245;42.058;24.700;2023-04-19T12:59:54;4.88;;;2.80;;
56343;SDS011;42245;42.058;24.700;2023-04-19T13:02:20;4.28;;;2.30;;
56343;SDS011;42245;42.058;24.700;2023-04-19T13:04:45;4.05;;;2.70;;
56343;SDS011;42245;42.058;24.700;2023-04-19T13:07:11;3.97;;;2.30;;
56343;SDS011;42245;42.058;24.700;2023-04-19T13:09:36;3.80;;;2.40;;
56343;SDS011;42245;42.058;24.700;2023-04-19T13:12:02;5.45;;;2.63;;
56343;SDS011;42245;42.058;24.700;2023-04-19T13:14:29;2.60;;;2.10;;
56343;SDS011;42245;42.058;24.700;2023-04-19T13:16:54;2.92;;;2.40;;
56343;SDS011;42245;42.058;24.700;2023-04-19T13:19:20;2.67;;;2.00;;
56343;SDS011;42245;42.058;24.700;2023-04-19T13:21:45;3.03;;;2.40;;
56343;SDS011;42245;42.058;24.700;2023-04-19T13:24:11;5.93;;;3.15;;
56343;SDS011;42245;42.058;24.700;2023-04-19T13:26:36;3.30;;;1.92;;
56343;SDS011;42245;42.058;24.700;2023-04-19T13:29:02;4.88;;;3.67;;
56343;SDS011;42245;42.058;24.700;2023-04-19T13:31:28;3.33;;;2.20;;
56343;SDS011;42245;42.058;24.700;2023-04-19T13:33:53;3.30;;;2.08;;
56343;SDS011;42245;42.058;24.700;2023-04-19T13:36:19;3.35;;;2.50;;
56343;SDS011;42245;42.058;24.700;2023-04-19T13:38:45;2.63;;;1.95;;
56343;SDS011;42245;42.058;24.700;2023-04-19T13:41:11;2.95;;;2.00;;
56343;SDS011;42245;42.058;24.700;2023-04-19T13:43:36;2.60;;;2.03;;
56343;SDS011;42245;42.058;24.700;2023-04-19T13:46:02;3.28;;;2.10;;
56343;SDS011;42245;42.058;24.700;2023-04-19T13:48:27;2.35;;;1.85;;
56343;SDS011;42245;42.058;24.700;2023-04-19T13:50:54;2.17;;;1.98;;
56343;SDS011;42245;42.058;24.700;2023-04-19T13:53:20;3.17;;;2.63;;
56343;SDS011;42245;42.058;24.700;2023-04-19T13:55:45;4.95;;;2.67;;
56343;SDS011;42245;42.058;24.700;2023-04-19T13:58:11;5.53;;;3.55;;
56343;SDS011;42245;42.058;24.700;2023-04-19T14:00:36;5.13;;;3.42;;
56343;SDS011;42245;42.058;24.700;2023-04-19T14:03:02;8.40;;;3.50;;
56343;SDS011;42245;42.058;24.700;2023-04-19T14:05:27;4.78;;;3.13;;
56343;SDS011;42245;42.058;24.700;2023-04-19T14:07:53;4.85;;;3.50;;
56343;SDS011;42245;42.058;24.700;2023-04-19T14:10:18;3.83;;;2.90;;
56343;SDS011;42245;42.058;24.700;2023-04-19T14:12:45;5.38;;;2.90;;
56343;SDS011;42245;42.058;24.700;2023-04-19T14:15:10;5.47;;;2.92;;
56343;SDS011;42245;42.058;24.700;2023-04-19T14:17:37;3.58;;;3.00;;
56343;SDS011;42245;42.058;24.700;2023-04-19T14:20:02;4.68;;;2.42;;
56343;SDS011;42245;42.058;24.700;2023-04-19T14:22:28;2.97;;;2.05;;
56343;SDS011;42245;42.058;24.700;2023-04-19T14:24:53;3.30;;;1.88;;
56343;SDS011;42245;42.058;24.700;2023-04-19T14:27:19;2.28;;;1.80;;
56343;SDS011;42245;42.058;24.700;2023-04-19T14:29:44;2.40;;;1.80;;
56343;SDS011;42245;42.058;24.700;2023-04-19T14:32:10;4.00;;;1.80;;
56343;SDS011;42245;42.058;24.700;2023-04-19T14:34:35;5.45;;;1.60;;
56343;SDS011;42245;42.058;24.700;2023-04-19T14:37:01;1.35;;;1.10;;
56343;SDS011;42245;42.058;24.700;2023-04-19T14:39:26;2.55;;;1.65;;
56343;SDS011;42245;42.058;24.700;2023-04-19T14:41:52;3.60;;;1.65;;
56343;SDS011;42245;42.058;24.700;2023-04-19T14:44:17;2.72;;;1.65;;
56343;SDS011;42245;42.058;24.700;2023-04-19T14:46:43;1.88;;;1.33;;
56343;SDS011;42245;42.058;24.700;2023-04-19T14:49:08;1.42;;;1.17;;
56343;SDS011;42245;42.058;24.700;2023-04-19T14:51:33;1.65;;;1.50;;